»·PEaware :: SWA309 KDEN-KLAS

SWA309 :: KDEN-KLAS

FLIGHT INFORMATION

Flight Status: Arrived
Operator:
Southwest Airlines
More flights by this operator :: More flights under this callsign
Pilot: Jac C. (16067)
Aircraft: BOEING 737-700
(B737)
More flights by this aircraft type
Origin: KDEN Denver Intl
United States
Destination: KLAS McCarran Intl
United States
More flights between these airports :: More routes between these airports
Route: +BAYLR3 TEHRU HVE GGAPP SITEE2
File this flight plan on PilotEdge
Remarks:
Altitude:
(Current/Filed)
38,000ft
Speed:
(Current/Filed)
453kts
Departed: 10-Mar-18 07:01 PM
Arrived: 10-Mar-18 08:07 PM
Distance/Time
Traveled:
545nm/1:06
Distance/Time
To Go:
Arrived

Flight Plot

Page will automatically refresh every two minutes.

Flight plan parsing failed; only flown route is shown


Map Options




Map Legend


Flown Route
Filed Route
Departure Airport
Arrival Airport
Navaid (VOR, NDB)
Fix

Horizontal Profiles

Position Reports

Time Latitude Longitude Heading Altitude Ground
Speed
10-Mar-18 17:50 39.858157 -104.678056 359 5438ft 0kts
10-Mar-18 17:51 39.858157 -104.678056 359 5438ft 0kts
10-Mar-18 17:52 39.858157 -104.678056 359 5438ft 0kts
10-Mar-18 17:53 39.858157 -104.678056 359 5438ft 0kts
10-Mar-18 17:54 39.858157 -104.678056 359 5439ft 0kts
10-Mar-18 17:55 39.858157 -104.678056 359 5439ft 0kts
10-Mar-18 17:56 39.858157 -104.678056 359 5439ft 0kts
10-Mar-18 17:57 39.858157 -104.678056 359 5439ft 0kts
10-Mar-18 17:58 39.858157 -104.678056 359 5439ft 0kts
10-Mar-18 17:59 39.858157 -104.678056 359 5439ft 0kts
10-Mar-18 19:00 38.996910 -107.984421 256 37996ft 422kts
10-Mar-18 19:01 38.967548 -108.130403 255 37996ft 422kts
10-Mar-18 19:02 38.937896 -108.276793 255 37996ft 422kts
10-Mar-18 19:03 38.908172 -108.422517 255 37996ft 422kts
10-Mar-18 19:04 38.878159 -108.568642 255 37996ft 422kts
10-Mar-18 19:05 38.848077 -108.714101 255 37996ft 422kts
10-Mar-18 19:06 38.817806 -108.859481 255 37996ft 422kts
10-Mar-18 19:07 38.787257 -109.005205 255 37996ft 422kts
10-Mar-18 19:08 38.756633 -109.150304 255 37996ft 422kts
10-Mar-18 19:09 38.725728 -109.295756 255 37996ft 422kts
10-Mar-18 19:10 38.694748 -109.440593 255 37996ft 422kts
10-Mar-18 19:11 38.663592 -109.585294 255 37996ft 422kts
10-Mar-18 19:12 38.632154 -109.730350 255 37996ft 422kts
10-Mar-18 19:13 38.600639 -109.874820 255 37996ft 422kts
10-Mar-18 19:14 38.568956 -110.019124 254 37996ft 422kts
10-Mar-18 19:15 38.536989 -110.163792 254 37996ft 422kts
10-Mar-18 19:16 38.504980 -110.307847 255 37996ft 422kts
10-Mar-18 19:17 38.472897 -110.452307 254 37996ft 422kts
10-Mar-18 19:18 38.440373 -110.596015 254 37996ft 422kts
10-Mar-18 19:19 38.394510 -110.732928 236 37998ft 425kts
10-Mar-18 19:20 38.323016 -110.853678 234 37996ft 426kts
10-Mar-18 19:21 38.250749 -110.973033 234 37996ft 426kts
10-Mar-18 19:22 38.178182 -111.092541 234 37996ft 426kts
10-Mar-18 19:23 38.105805 -111.211511 234 37996ft 426kts
10-Mar-18 19:24 38.033176 -111.330135 233 37996ft 426kts
10-Mar-18 19:25 37.960158 -111.448868 233 37996ft 426kts
10-Mar-18 19:26 37.890687 -111.561411 233 37996ft 426kts
10-Mar-18 19:27 37.819468 -111.676386 233 37996ft 426kts
10-Mar-18 19:28 37.746117 -111.794388 233 37996ft 426kts
10-Mar-18 19:29 37.673058 -111.911955 233 37996ft 426kts
10-Mar-18 19:30 37.599375 -112.029447 233 37996ft 426kts
10-Mar-18 19:31 37.526747 -112.147125 238 37997ft 425kts
10-Mar-18 19:32 37.465665 -112.274061 240 37997ft 424kts
10-Mar-18 19:33 37.404712 -112.401517 240 37996ft 424kts
10-Mar-18 19:34 37.343705 -112.528265 240 37996ft 424kts
10-Mar-18 19:35 37.282812 -112.654963 240 37996ft 424kts
10-Mar-18 19:36 37.221374 -112.781801 240 37996ft 424kts
10-Mar-18 19:37 37.159986 -112.907891 240 37996ft 424kts
10-Mar-18 19:38 37.098224 -113.034218 240 37995ft 424kts
10-Mar-18 19:39 37.036765 -113.159438 239 36264ft 421kts
10-Mar-18 19:40 36.975306 -113.284190 239 33513ft 419kts
10-Mar-18 19:41 36.914900 -113.406354 239 31119ft 409kts
10-Mar-18 19:42 36.854902 -113.527256 239 28323ft 409kts
10-Mar-18 19:43 36.794940 -113.647657 239 25517ft 405kts
10-Mar-18 19:44 36.737366 -113.763115 240 24160ft 369kts
10-Mar-18 19:45 36.684122 -113.869592 239 23997ft 363kts
10-Mar-18 19:46 36.630460 -113.976034 239 23539ft 357kts
10-Mar-18 19:47 36.578624 -114.078577 239 21332ft 344kts
10-Mar-18 19:48 36.528315 -114.177591 239 18959ft 331kts
10-Mar-18 19:49 36.489265 -114.253847 239 17047ft 254kts
10-Mar-18 19:50 36.444417 -114.341209 239 13870ft 317kts
10-Mar-18 19:51 36.396358 -114.434526 239 12122ft 316kts
10-Mar-18 19:52 36.352525 -114.519817 239 11964ft 269kts
10-Mar-18 19:53 36.315226 -114.592084 239 11956ft 228kts
10-Mar-18 19:54 36.271376 -114.641739 206 11969ft 221kts
10-Mar-18 19:55 36.210618 -114.668233 203 11987ft 243kts
10-Mar-18 19:56 36.146677 -114.695789 203 11976ft 242kts
10-Mar-18 19:57 36.082307 -114.729381 230 10618ft 258kts
10-Mar-18 19:58 36.081219 -114.800063 282 9166ft 261kts
10-Mar-18 19:59 36.100943 -114.902448 282 6995ft 259kts
10-Mar-18 20:00 36.113528 -114.973513 282 5742ft 251kts
10-Mar-18 20:01 36.127936 -115.055262 282 4955ft 221kts
10-Mar-18 20:02 36.141839 -115.132711 282 5005ft 192kts
10-Mar-18 20:03 36.169027 -115.164648 23 4562ft 192kts
10-Mar-18 20:04 36.154386 -115.128000 193 4114ft 179kts
10-Mar-18 20:05 36.110305 -115.146809 205 2612ft 150kts
10-Mar-18 20:06 36.083443 -115.162271 206 2189ft 35kts
10-Mar-18 20:07 36.081629 -115.161554 90 2189ft 0kts
10-Mar-18 20:08 36.081629 -115.161552 90 2189ft 0kts
10-Mar-18 20:09 36.081622 -115.161054 91 2189ft 15kts
10-Mar-18 20:10 36.081625 -115.155289 89 2189ft 16kts
10-Mar-18 20:11 36.081177 -115.150915 66 2189ft 12kts
10-Mar-18 20:12 36.082391 -115.149387 11 2189ft 6kts
10-Mar-18 20:13 36.083016 -115.149147 66 2189ft 0kts
10-Mar-18 20:14 36.083016 -115.149147 66 2189ft 0kts
10-Mar-18 20:15 36.083016 -115.149147 66 2189ft 0kts

Navigation Log

Ident Type
Flight plan parsing failed, navigation log unavailable